Time;durP1;ratioP1;P1;durP2;ratioP2;P2;SDS_P1;SDS_P2;PMS_P1;PMS_P2;Temp;Humidity;BMP_temperature;BMP_pressure;BME280_temperature;BME280_humidity;BME280_pressure;Samples;Min_cycle;Max_cycle;Signal;HPM_P1;HPM_P2
2021/07/20 00:00:40;;;;;;;17.08;10.30;;;16.70;87.30;;;16.89;76.00;100992.22;5048703;28;20048;-79
2021/07/20 00:03:10;;;;;;;17.55;10.63;;;16.70;87.30;;;16.87;76.03;100986.94;5048311;28;20049;-79
2021/07/20 00:05:39;;;;;;;19.02;10.57;;;16.70;87.40;;;16.88;76.12;100987.78;5048449;28;20484;-79
2021/07/20 00:08:09;;;;;;;17.95;9.88;;;16.70;87.30;;;16.88;76.23;100987.78;5047642;28;20053;-79
2021/07/20 00:10:42;;;;;;;16.52;9.77;;;16.70;87.50;;;16.85;76.23;100986.31;5048466;28;20811;-80
2021/07/20 00:13:10;;;;;;;19.42;11.50;;;16.70;87.60;;;16.84;76.31;100990.09;5048365;28;20128;-79
2021/07/20 00:15:38;;;;;;;16.83;10.48;;;16.70;87.60;;;16.83;76.25;100987.56;5048282;28;20052;-79
2021/07/20 00:18:09;;;;;;;19.73;10.40;;;16.70;87.60;;;16.80;76.21;100986.91;5047451;28;20095;-79
2021/07/20 00:20:37;;;;;;;19.27;10.15;;;16.60;87.50;;;16.78;76.31;100983.53;5048356;28;20049;-79
2021/07/20 00:23:05;;;;;;;19.95;11.23;;;16.60;87.40;;;16.79;76.21;100985.22;5048310;28;20052;-79
2021/07/20 00:25:33;;;;;;;19.50;11.57;;;16.60;87.30;;;16.75;76.22;100978.47;5048215;28;20091;-80
2021/07/20 00:28:01;;;;;;;20.15;11.02;;;16.60;87.30;;;16.74;76.28;100982.28;5047400;28;20548;-79
2021/07/20 00:30:30;;;;;;;20.15;11.23;;;16.60;87.40;;;16.71;76.23;100982.69;5048134;28;20086;-79
2021/07/20 00:32:58;;;;;;;18.75;11.10;;;16.60;87.50;;;16.69;76.38;100979.31;5048213;28;20051;-79
2021/07/20 00:35:25;;;;;;;19.40;11.57;;;16.60;87.40;;;16.70;76.26;100983.75;5046467;28;20086;-79
2021/07/20 00:37:53;;;;;;;20.00;11.60;;;16.60;87.40;;;16.69;76.42;100983.97;5046046;28;20051;-79
2021/07/20 00:40:21;;;;;;;19.95;12.05;;;16.50;87.70;;;16.66;76.50;100981.63;5046499;28;20053;-80
2021/07/20 00:42:53;;;;;;;23.85;11.40;;;16.50;88.00;;;16.67;76.69;100986.09;5046760;28;20763;-79
2021/07/20 00:45:22;;;;;;;19.75;12.10;;;16.50;88.10;;;16.65;76.65;100979.97;5046266;28;20134;-79
2021/07/20 00:47:50;;;;;;;20.02;11.43;;;16.50;88.00;;;16.58;76.64;100978.06;5027314;28;20034;-79
2021/07/20 00:50:23;;;;;;;19.92;11.82;;;16.40;87.90;;;16.55;76.76;100983.16;5026741;28;20053;-79
2021/07/20 00:52:51;;;;;;;20.88;11.52;;;16.40;88.00;;;16.47;76.82;100973.22;5026769;28;20136;-79
2021/07/20 00:55:19;;;;;;;22.95;11.68;;;16.40;88.00;;;16.46;76.96;100977.00;5026650;28;20049;-79
2021/07/20 00:57:48;;;;;;;21.55;12.50;;;16.40;88.10;;;16.52;76.81;100972.56;5025855;28;20540;-79
2021/07/20 01:00:19;;;;;;;23.02;12.23;;;16.30;88.20;;;16.50;76.66;100970.03;5026737;28;20045;-79
2021/07/20 01:02:52;;;;;;;21.23;13.13;;;16.30;88.20;;;16.50;76.75;100975.53;5028163;28;20041;-79
2021/07/20 01:05:22;;;;;;;26.08;13.02;;;16.30;88.30;;;16.48;76.81;100974.06;5027996;28;20464;-80
2021/07/20 01:07:51;;;;;;;23.08;12.65;;;16.30;88.30;;;16.46;76.82;100966.03;5025656;28;20045;-79
2021/07/20 01:10:22;;;;;;;25.65;13.73;;;16.30;88.30;;;16.46;76.73;100978.94;5028021;28;20132;-79
2021/07/20 01:12:51;;;;;;;23.73;13.17;;;16.20;88.30;;;16.41;76.63;100969.41;5026377;28;20049;-79
2021/07/20 01:15:23;;;;;;;26.73;13.90;;;16.20;88.20;;;16.37;76.85;100973.66;5026107;28;20429;-79
2021/07/20 01:17:55;;;;;;;24.08;13.05;;;16.10;88.40;;;16.33;76.83;100974.28;5025769;28;20120;-79
2021/07/20 01:20:27;;;;;;;23.63;12.57;;;16.10;88.30;;;16.31;76.52;100977.22;5026413;28;20050;-79
2021/07/20 01:23:05;;;;;;;27.35;14.02;;;16.10;88.40;;;16.36;76.68;100979.34;5026267;28;20080;-79
2021/07/20 01:25:36;;;;;;;27.77;14.07;;;16.10;88.60;;;16.36;76.57;100974.69;5026368;28;20055;-79
2021/07/20 01:28:08;;;;;;;24.95;13.45;;;16.10;88.40;;;16.27;76.72;100972.38;5025707;28;20045;-79
2021/07/20 01:30:41;;;;;;;25.88;13.63;;;16.10;88.40;;;16.23;76.57;100969.22;5026355;28;20413;-79
2021/07/20 01:33:10;;;;;;;29.70;14.60;;;16.10;88.40;;;16.22;76.72;100970.25;5043130;28;20049;-80
2021/07/20 01:35:40;;;;;;;31.63;14.52;;;16.00;88.40;;;16.24;76.84;100970.91;5027321;28;20391;-79
2021/07/20 01:38:09;;;;;;;30.33;14.57;;;16.10;88.60;;;16.24;76.87;100976.41;5025684;28;20115;-79
2021/07/20 01:40:40;;;;;;;28.90;15.10;;;16.00;88.60;;;16.16;77.03;100976.59;5029651;28;20049;-79
2021/07/20 01:43:09;;;;;;;28.88;14.95;;;16.00;88.60;;;16.17;77.11;100981.88;5031361;28;20099;-79
2021/07/20 01:45:40;;;;;;;27.50;14.98;;;16.00;88.80;;;16.18;77.12;100980.84;5029472;28;20173;-79
2021/07/20 01:48:08;;;;;;;;;;;16.00;88.80;;;16.16;77.11;100977.47;5029492;28;20132;-79
2021/07/20 01:50:37;;;;;;;29.80;15.63;;;16.00;88.80;;;16.14;77.03;100971.31;5029415;28;20297;-79
2021/07/20 01:53:06;;;;;;;30.45;16.17;;;16.00;88.70;;;16.15;76.90;100977.66;5049695;28;20399;-79
2021/07/20 01:55:37;;;;;;;31.60;16.42;;;16.00;88.60;;;16.11;77.14;100977.22;5049668;28;20036;-79
2021/07/20 01:58:07;;;;;;;34.08;16.10;;;15.90;88.70;;;16.12;76.99;100972.56;5048773;28;20061;-80
2021/07/20 02:00:52;;;;;;;32.53;15.88;;;16.00;88.70;;;16.05;77.07;100977.22;5051095;28;20132;-79
2021/07/20 02:03:32;;;;;;;31.55;16.27;;;15.90;88.70;;;16.00;76.96;100975.09;5049289;28;20139;-80
2021/07/20 02:09:02;;;;;;;30.88;14.73;;;15.80;88.50;;;15.99;76.83;100978.88;5049176;28;20463;-79
2021/07/20 02:11:36;;;;;;;31.95;16.08;;;15.80;88.70;;;15.98;76.84;100978.06;5049312;28;20505;-79
2021/07/20 02:14:14;;;;;;;31.45;15.75;;;15.80;88.70;;;15.97;76.85;100983.75;5048778;28;20045;-79
2021/07/20 02:17:02;;;;;;;29.63;15.32;;;15.70;88.80;;;15.94;76.68;100982.28;5049572;28;20198;-79
2021/07/20 02:19:38;;;;;;;28.45;15.07;;;15.70;88.80;;;16.00;76.53;100986.09;5048921;28;20044;-79
2021/07/20 02:22:10;;;;;;;34.13;15.70;;;15.70;88.80;;;15.98;76.35;100986.28;5049022;28;20053;-79
2021/07/20 02:24:39;;;;;;;31.85;15.65;;;15.70;88.90;;;15.93;76.74;100980.56;5050203;28;20114;-79
2021/07/20 02:27:10;;;;;;;29.83;15.88;;;15.70;89.10;;;15.88;76.99;100988.59;5048204;28;20198;-79
2021/07/20 02:30:00;;;;;;;32.63;15.35;;;15.60;88.90;;;15.85;76.92;100988.16;5048795;28;20052;-79
2021/07/20 02:32:31;;;;;;;28.88;14.88;;;15.60;88.80;;;15.83;76.94;100982.88;5048943;28;20049;-79
2021/07/20 02:35:01;;;;;;;28.83;15.55;;;15.60;89.00;;;15.86;76.97;100981.63;5048582;28;20044;-79
2021/07/20 02:37:38;;;;;;;29.05;14.68;;;15.50;89.10;;;15.88;76.74;100982.25;5048215;28;20101;-79
2021/07/20 02:40:10;;;;;;;27.02;14.18;;;15.60;89.10;;;15.82;76.83;100983.94;5048486;28;20045;-79
2021/07/20 02:42:41;;;;;;;27.50;14.48;;;15.60;89.10;;;15.81;76.86;100980.34;5048773;28;20791;-79
2021/07/20 02:45:11;;;;;;;28.05;14.00;;;15.50;89.30;;;15.81;76.96;100983.09;5048455;28;20071;-79
2021/07/20 02:47:40;;;;;;;27.40;14.70;;;15.50;89.50;;;15.85;77.10;100986.25;5047764;28;20044;-79
2021/07/20 02:50:13;;;;;;;24.20;13.38;;;15.50;89.60;;;15.80;76.96;100986.91;5048708;28;20049;-79
2021/07/20 02:52:47;;;;;;;25.67;14.05;;;15.50;89.50;;;15.78;76.97;100983.53;5048372;28;20048;-79
2021/07/20 02:55:21;;;;;;;25.83;13.25;;;15.50;89.30;;;15.75;76.74;100983.09;5048428;28;20665;-79
2021/07/20 02:57:54;;;;;;;27.95;14.02;;;15.50;89.40;;;15.72;77.12;100986.19;5049076;28;20052;-79
2021/07/20 03:00:23;;;;;;;25.55;13.73;;;15.40;89.30;;;15.64;77.32;100985.34;5048326;28;20037;-79
2021/07/20 03:02:58;;;;;;;27.25;13.73;;;15.40;89.40;;;15.64;77.28;100982.59;5047946;28;20525;-79
2021/07/20 03:05:30;;;;;;;25.75;13.55;;;15.40;89.50;;;15.64;77.09;100987.25;5048196;28;20513;-80
2021/07/20 03:08:01;;;;;;;27.77;13.43;;;15.40;89.50;;;15.59;77.36;100985.13;5047411;28;20076;-79
2021/07/20 03:10:37;;;;;;;24.00;13.15;;;15.40;89.50;;;15.61;77.03;100976.66;5048230;28;20044;-79
2021/07/20 03:13:10;;;;;;;28.60;14.77;;;15.30;89.40;;;15.55;77.27;100989.31;5049596;28;20464;-79
2021/07/20 03:15:49;;;;;;;21.77;12.57;;;15.30;89.50;;;15.54;77.08;100981.31;5047857;28;20060;-79
2021/07/20 03:18:24;;;;;;;23.52;12.77;;;15.30;89.30;;;15.53;77.27;100985.09;5049444;28;20465;-79
2021/07/20 03:20:54;;;;;;;22.88;12.65;;;15.30;89.50;;;15.51;77.47;100988.03;5047751;28;20056;-79
2021/07/20 03:23:23;;;;;;;24.77;12.32;;;15.30;89.50;;;15.53;77.19;100985.94;5047893;28;20045;-79
2021/07/20 03:25:56;;;;;;;21.58;11.95;;;15.30;89.50;;;15.50;77.25;100980.88;5046922;28;20398;-79
2021/07/20 03:28:28;;;;;;;25.00;12.50;;;15.30;89.50;;;15.49;77.17;100984.66;5047615;28;20076;-79
2021/07/20 03:30:57;;;;;;;23.42;12.65;;;15.20;89.40;;;15.46;77.61;100976.84;5047560;28;20045;-79
2021/07/20 03:33:26;;;;;;;25.13;12.38;;;15.20;89.40;;;15.41;77.30;100973.88;5048875;28;20123;-79
2021/07/20 04:11:06;;;;;;;26.17;13.02;;;15.00;89.30;;;15.20;77.63;100981.16;5048553;28;20045;-89
2021/07/20 04:13:57;;;;;;;25.42;12.75;;;15.10;89.30;;;15.16;77.98;100979.88;5044479;28;20053;-88
2021/07/20 04:16:39;;;;;;;24.30;13.13;;;15.10;89.40;;;15.25;77.72;100981.41;5043140;28;20099;-87
2021/07/20 04:19:08;;;;;;;28.80;14.27;;;15.10;89.40;;;15.23;77.82;100983.50;5041872;28;20045;-89
2021/07/20 04:21:59;;;;;;;27.02;13.70;;;15.10;89.20;;;15.28;78.03;100982.88;5042275;28;20053;-87
2021/07/20 04:24:30;;;;;;;27.70;13.87;;;15.20;89.40;;;15.29;78.14;100986.47;5026619;28;20045;-87
2021/07/20 04:27:01;;;;;;;27.70;14.65;;;15.20;89.40;;;15.30;78.10;100986.25;5026082;28;20749;-87
2021/07/20 04:29:29;;;;;;;27.77;14.75;;;15.30;89.50;;;15.30;78.21;100980.78;5026678;28;20166;-88
2021/07/20 04:32:04;;;;;;;27.52;14.20;;;15.30;89.20;;;15.30;78.77;100983.53;5042598;28;20053;-88
2021/07/20 04:34:33;;;;;;;30.45;15.50;;;15.40;89.30;;;15.35;78.79;100981.03;5027376;28;20046;-87
2021/07/20 04:37:29;;;;;;;32.03;15.95;;;15.40;89.30;;;15.43;78.94;100990.97;5026210;28;20140;-87
2021/07/20 04:40:00;;;;;;;29.42;15.38;;;15.50;89.40;;;15.45;79.29;100991.59;5026564;28;20049;-88
2021/07/20 04:42:33;;;;;;;33.28;16.42;;;15.60;89.30;;;15.50;78.91;100988.22;5042960;28;20053;-87
2021/07/20 04:45:01;;;;;;;32.88;16.50;;;15.60;89.20;;;15.50;79.27;100994.59;5026345;28;20134;-88
2021/07/20 04:47:44;;;;;;;31.65;15.30;;;15.70;89.10;;;15.55;79.42;100983.81;5042751;28;20188;-88
2021/07/20 04:50:29;;;;;;;31.88;16.35;;;15.80;89.10;;;15.58;79.69;100996.31;5043111;28;20522;-88
2021/07/20 04:53:02;;;;;;;33.42;16.77;;;15.90;89.20;;;15.61;79.93;100983.03;5025800;28;20522;-88
2021/07/20 04:55:31;;;;;;;31.58;16.13;;;15.90;89.20;;;15.69;79.81;100989.34;5042903;28;20140;-88
2021/07/20 04:58:03;;;;;;;31.98;16.27;;;16.00;89.00;;;15.76;79.85;100991.13;5026132;28;20572;-87
2021/07/20 05:00:31;;;;;;;32.25;16.75;;;16.10;88.80;;;15.81;79.80;100991.31;5042930;28;20407;-87
2021/07/20 05:03:01;;;;;;;29.67;15.13;;;16.20;88.40;;;15.88;79.65;100994.09;5025839;28;20046;-87
2021/07/20 05:05:37;;;;;;;27.88;14.50;;;16.40;87.90;;;15.95;79.62;100994.94;5026524;28;20053;-90
2021/07/20 05:08:10;;;;;;;26.48;13.57;;;16.50;87.60;;;15.99;79.77;100998.97;5044334;28;20076;-88
2021/07/20 05:10:48;;;;;;;25.83;13.73;;;16.60;87.10;;;16.05;80.17;101001.91;5028194;28;20057;-88
2021/07/20 05:13:22;;;;;;;28.25;14.95;;;16.80;87.30;;;16.05;80.28;101004.66;5028746;28;20108;-89
2021/07/20 05:15:55;;;;;;;29.52;14.55;;;16.90;86.90;;;16.12;80.15;101000.88;5028815;28;20100;-89
2021/07/20 05:18:24;;;;;;;31.17;14.70;;;17.00;86.30;;;16.18;79.74;101008.31;5032455;28;20042;-89
2021/07/20 05:20:58;;;;;;;29.13;14.32;;;17.20;85.60;;;16.20;80.08;101002.56;5033004;28;20060;-89
2021/07/20 05:23:27;;;;;;;31.70;15.10;;;17.30;85.40;;;16.29;79.30;101009.56;5031755;28;20049;-89
2021/07/20 05:26:01;;;;;;;27.10;14.32;;;17.40;84.80;;;16.34;79.27;101009.78;5046913;28;20046;-89
2021/07/20 05:28:32;;;;;;;41.38;15.88;;;17.40;84.80;;;16.42;78.71;101014.22;5047302;28;20069;-88
2021/07/20 05:31:04;;;;;;;28.48;14.77;;;17.50;84.30;;;16.47;78.24;101008.06;5047524;28;20398;-89
2021/07/20 05:33:33;;;;;;;28.58;14.70;;;17.60;84.00;;;16.49;78.15;101006.00;5047442;28;20053;-90
2021/07/20 05:36:11;;;;;;;33.13;14.88;;;17.60;83.10;;;16.54;77.73;101014.41;5047134;28;20045;-88
2021/07/20 05:38:40;;;;;;;28.17;14.27;;;17.70;83.00;;;16.58;77.21;101005.56;5032007;28;20072;-93
2021/07/20 05:41:27;;;;;;;30.05;15.07;;;17.70;82.70;;;16.61;78.06;101015.28;5033732;28;20052;-90
2021/07/20 05:43:57;;;;;;;27.40;13.82;;;17.70;83.50;;;16.62;78.62;101014.22;5031897;28;20049;-90
2021/07/20 05:46:25;;;;;;;27.73;14.43;;;17.80;83.50;;;16.62;77.69;101011.47;5030643;28;20103;-91
2021/07/20 05:48:58;;;;;;;28.15;14.30;;;17.80;82.10;;;16.64;77.67;101025.84;5044373;28;20449;-90
2021/07/20 05:51:27;;;;;;;28.10;13.95;;;17.80;82.40;;;16.71;76.97;101023.91;5044775;28;20103;-90
2021/07/20 05:54:02;;;;;;;29.85;14.63;;;17.90;81.90;;;16.74;77.00;101026.25;5028218;28;20448;-91
2021/07/20 05:57:00;;;;;;;27.73;14.82;;;18.00;81.80;;;16.85;77.25;101018.44;5019888;28;20057;-89
2021/07/20 05:59:47;;;;;;;25.35;14.32;;;18.20;81.70;;;16.96;76.57;101021.41;5032679;28;20612;-90
2021/07/20 06:02:22;;;;;;;28.02;14.63;;;19.50;76.30;;;17.10;76.73;101024.97;5031240;28;20057;-89
2021/07/20 06:04:51;;;;;;;29.13;13.90;;;20.50;71.20;;;17.30;75.98;101021.31;5047832;28;20041;-89
2021/07/20 06:07:19;;;;;;;28.23;14.15;;;21.20;69.40;;;17.47;75.46;101019.75;5031868;28;20418;-89
2021/07/20 06:09:47;;;;;;;32.53;14.98;;;22.40;63.70;;;17.66;75.09;101022.63;5031167;28;20198;-89
2021/07/20 06:12:17;;;;;;;28.35;14.55;;;23.20;60.00;;;17.78;74.38;101020.88;5030978;28;20049;-89
2021/07/20 06:14:47;;;;;;;25.77;13.73;;;23.80;58.20;;;17.96;73.76;101023.78;5030845;28;20128;-90
2021/07/20 06:17:15;;;;;;;26.50;13.57;;;24.50;56.20;;;18.06;73.66;101022.44;5047108;28;20049;-89
2021/07/20 06:19:42;;;;;;;25.02;13.50;;;25.10;54.90;;;18.21;72.79;101030.41;5031592;28;20045;-91
2021/07/20 06:22:12;;;;;;;24.60;12.52;;;25.60;52.40;;;18.28;72.86;101022.94;5030528;28;20045;-89
2021/07/20 06:25:02;;;;;;;26.10;14.20;;;25.60;52.50;;;18.31;72.86;101030.75;5031540;28;20129;-88
2021/07/20 06:27:32;;;;;;;26.55;13.48;;;24.60;55.80;;;18.30;72.34;101037.34;5030040;28;20081;-89
2021/07/20 06:30:01;;;;;;;26.73;14.13;;;24.00;57.90;;;18.30;72.60;101040.94;5029562;28;20102;-89
2021/07/20 06:32:31;;;;;;;27.63;13.88;;;24.40;56.10;;;18.30;72.84;101035.41;5046713;28;20060;-89
2021/07/20 06:35:22;;;;;;;25.38;13.65;;;23.40;59.20;;;18.28;73.16;101037.56;5047358;28;20144;-89
2021/07/20 12:04:23;;;;;;;20.00;8.52;;;21.50;59.80;;;19.77;56.54;101050.53;5069529;22;20055;-85
2021/07/20 12:07:10;;;;;;;13.43;8.10;;;21.50;58.90;;;19.79;56.81;101048.38;5106656;28;20048;-88
2021/07/20 12:10:19;;;;;;;15.07;7.85;;;21.50;58.90;;;19.78;56.38;101048.63;5095087;28;20052;-95
2021/07/20 12:12:53;;;;;;;14.05;8.60;;;21.40;59.10;;;19.76;56.01;101054.38;5100752;28;20048;-92
2021/07/20 12:15:24;;;;;;;17.02;9.93;;;21.40;58.30;;;19.79;56.05;101045.63;5069251;28;20076;-91
2021/07/20 12:17:55;;;;;;;16.48;8.25;;;21.40;59.10;;;19.81;55.84;101050.91;5069534;28;20053;-87
2021/07/20 12:20:26;;;;;;;18.83;8.73;;;21.50;59.20;;;19.81;55.72;101039.88;5069060;28;20453;-92
2021/07/20 12:22:56;;;;;;;14.53;8.07;;;21.50;59.20;;;19.85;56.37;101046.59;5084298;28;20049;-94
2021/07/20 12:25:26;;;;;;;16.63;8.10;;;21.50;59.20;;;19.88;57.61;101055.28;5068877;28;20040;-94
2021/07/20 12:27:57;;;;;;;16.05;9.20;;;21.50;60.30;;;19.87;55.42;101049.97;5066137;28;20037;-93
2021/07/20 12:30:28;;;;;;;16.40;9.02;;;21.40;58.70;;;19.87;56.32;101039.75;5098263;28;20055;-93
2021/07/20 12:32:57;;;;;;;13.23;7.47;;;21.40;59.20;;;19.86;55.99;101043.63;5069475;28;20055;-92
2021/07/20 12:35:30;;;;;;;12.37;7.17;;;21.40;58.40;;;19.89;57.03;101040.38;5069895;28;20746;-93
2021/07/20 12:38:08;;;;;;;14.38;7.25;;;21.50;59.90;;;19.91;55.81;101035.50;5068113;28;20045;-92
2021/07/20 12:40:38;;;;;;;16.88;8.13;;;21.50;57.60;;;19.91;55.18;101034.63;5069950;28;20040;-93
2021/07/20 12:43:11;;;;;;;16.70;8.00;;;21.50;58.40;;;19.92;54.33;101031.63;5068832;28;20058;-91
2021/07/20 12:45:48;;;;;;;14.13;7.97;;;21.50;57.10;;;19.91;54.57;101038.25;5065927;28;20110;-92
2021/07/20 12:48:30;;;;;;;12.95;7.47;;;21.40;57.80;;;19.90;53.52;101039.31;5069394;28;20037;-92
2021/07/20 12:51:14;;;;;;;16.38;8.10;;;21.40;57.00;;;19.90;54.57;101024.66;5096628;28;20040;-93
2021/07/20 12:53:42;;;;;;;16.27;7.53;;;21.30;57.60;;;19.91;53.46;101034.63;5064316;28;20049;-92
2021/07/20 12:56:37;;;;;;;15.77;8.07;;;21.40;56.70;;;19.95;54.71;101029.47;5069463;28;20481;-94
2021/07/20 12:59:07;;;;;;;12.65;7.60;;;21.50;57.40;;;19.95;55.22;101023.94;5068380;28;20037;-87
2021/07/20 13:01:36;;;;;;;12.45;7.43;;;21.50;58.20;;;19.94;53.37;101027.81;5068097;28;20093;-85
2021/07/20 13:04:08;;;;;;;13.70;6.90;;;21.50;56.50;;;19.94;53.17;101023.13;5067194;28;20044;-88
2021/07/20 13:06:39;;;;;;;13.90;7.43;;;21.50;56.40;;;19.96;53.89;101025.66;5066045;28;20412;-86
2021/07/20 13:09:08;;;;;;;16.17;8.27;;;21.50;57.20;;;19.98;55.26;101017.97;5066945;28;20106;-87
2021/07/20 13:11:39;;;;;;;12.18;6.72;;;21.50;58.50;;;19.99;55.44;101020.50;5067855;28;20057;-86
2021/07/20 13:14:07;;;;;;;15.85;7.80;;;21.50;58.10;;;20.02;56.55;101020.00;5066605;28;20406;-86
2021/07/20 13:16:35;;;;;;;13.95;7.18;;;21.60;59.20;;;20.06;57.17;101023.16;5067358;28;20071;-86
2021/07/20 13:19:05;;;;;;;14.27;8.30;;;21.70;59.40;;;20.08;55.25;101023.75;5068031;28;20072;-85
2021/07/20 13:21:40;;;;;;;15.32;7.35;;;21.70;57.40;;;20.04;53.07;101017.03;5066941;28;20036;-86
2021/07/20 13:24:08;;;;;;;12.82;7.53;;;21.60;56.60;;;20.03;53.75;101015.31;5067884;28;20117;-86
2021/07/20 13:26:35;;;;;;;13.27;7.07;;;21.60;56.30;;;20.04;53.65;101017.03;5067386;28;20040;-85
2021/07/20 13:29:05;;;;;;;12.25;7.53;;;21.60;57.20;;;20.05;55.26;101024.25;5067945;28;20451;-88
2021/07/20 13:31:36;;;;;;;13.18;7.38;;;21.60;58.20;;;20.02;53.11;101024.69;5066221;28;20045;-86
2021/07/20 13:34:04;;;;;;;12.30;7.57;;;21.50;56.80;;;20.02;53.69;101025.53;5066495;28;20063;-88
2021/07/20 13:36:34;;;;;;;15.50;7.53;;;21.50;57.10;;;20.02;54.80;101025.53;5068544;28;20094;-88
2021/07/20 13:39:06;;;;;;;15.23;8.07;;;21.50;57.90;;;20.02;54.36;101025.53;5070195;28;20063;-89
2021/07/20 13:41:35;;;;;;;16.75;7.07;;;21.50;57.40;;;20.02;54.73;101024.69;5070495;28;20056;-90
2021/07/20 13:44:09;;;;;;;16.80;7.53;;;21.50;57.60;;;20.03;53.37;101015.31;5070046;28;20500;-90
2021/07/20 13:46:43;;;;;;;15.07;7.50;;;21.50;57.10;;;20.07;54.58;101019.31;5070007;28;20049;-90
2021/07/20 13:49:13;;;;;;;17.15;7.30;;;21.60;57.80;;;20.08;54.34;101023.75;5069895;28;20566;-89
2021/07/20 13:51:44;;;;;;;15.13;7.47;;;21.60;58.10;;;20.09;54.92;101020.75;5071477;28;20029;-90
2021/07/20 13:54:14;;;;;;;;;;;21.60;58.10;;;20.08;53.80;101023.75;5070267;28;20155;-90
2021/07/20 13:56:45;;;;;;;16.75;7.55;;;21.70;57.40;;;20.10;54.75;101016.06;5069123;28;19939;-89
2021/07/20 13:59:15;;;;;;;;;;;21.70;58.40;;;20.09;53.51;101014.41;5071454;28;20048;-89
2021/07/20 14:01:45;;;;;;;13.70;6.88;;;21.70;56.20;;;20.09;53.76;101014.41;5069305;28;19924;-90
2021/07/20 14:04:13;;;;;;;12.40;7.00;;;21.70;56.40;;;20.10;53.64;101014.16;5070815;28;20131;-89
2021/07/20 14:06:43;;;;;;;13.95;6.38;;;21.70;56.60;;;20.11;54.19;101026.88;5050498;28;20501;-89
2021/07/20 14:09:14;;;;;;;13.18;6.97;;;21.70;57.20;;;20.12;54.98;101022.19;5049843;28;20067;-88
2021/07/20 14:11:44;;;;;;;12.20;6.70;;;21.70;57.80;;;20.13;55.56;101015.59;5066140;28;20625;-89
2021/07/20 14:14:14;;;;;;;16.52;6.60;;;21.80;58.30;;;20.16;55.30;101017.88;5071143;28;20052;-90
2021/07/20 14:16:43;;;;;;;12.05;7.22;;;21.80;58.20;;;20.17;55.31;101008.53;5068911;28;20048;-90
2021/07/20 14:19:12;;;;;;;14.43;7.07;;;21.80;57.80;;;20.15;53.28;101004.31;5069537;28;20037;-93
2021/07/20 14:21:46;;;;;;;13.43;6.85;;;21.80;55.70;;;20.15;53.26;101005.16;5069204;28;20052;-91
2021/07/20 14:24:17;;;;;;;15.20;6.30;;;21.80;55.90;;;20.14;53.19;101000.69;5065804;28;20051;-90
2021/07/20 14:26:47;;;;;;;11.63;6.60;;;21.70;56.00;;;20.13;53.53;101004.56;5053607;28;20136;-92
2021/07/20 14:29:19;;;;;;;13.03;6.67;;;21.70;57.30;;;20.13;54.17;101004.56;5068347;28;20044;-90
2021/07/20 14:31:47;;;;;;;10.73;6.13;;;21.70;57.70;;;20.15;54.06;101007.91;5069004;28;20067;-90
2021/07/20 14:34:18;;;;;;;12.32;6.38;;;21.70;57.40;;;20.15;53.99;100999.63;5086030;28;20040;-90
2021/07/20 14:36:50;;;;;;;12.93;7.15;;;21.70;57.90;;;20.15;52.51;101007.91;5068078;28;20049;-91
2021/07/20 14:39:36;;;;;;;11.80;6.07;;;21.70;55.80;;;20.15;53.68;101007.91;5070759;28;20040;-91
2021/07/20 14:42:18;;;;;;;11.48;5.97;;;21.70;56.20;;;20.15;53.14;101005.16;5070167;28;20048;-90
2021/07/20 14:45:15;;;;;;;11.50;5.95;;;21.70;56.30;;;20.17;53.78;101005.75;5070355;28;20045;-91
2021/07/20 14:48:08;;;;;;;14.05;6.93;;;21.70;57.20;;;20.19;53.82;100997.25;5068287;28;20048;-92
2021/07/20 14:50:39;;;;;;;13.32;6.50;;;21.80;56.80;;;20.19;53.94;101000.00;5086432;28;20136;-89
2021/07/20 14:53:28;;;;;;;11.23;6.03;;;21.80;57.00;;;20.16;53.72;100998.53;5070545;28;20052;-90
2021/07/20 14:56:09;;;;;;;10.75;5.60;;;21.70;56.80;;;20.19;55.33;100998.06;5069103;28;20059;-90
2021/07/20 14:58:40;;;;;;;11.80;6.63;;;21.70;58.20;;;20.19;54.33;100994.47;5069060;28;20509;-89
2021/07/20 15:01:13;;;;;;;10.18;5.60;;;21.70;57.60;;;20.20;53.28;100994.25;5069379;28;20051;-86
2021/07/20 15:03:47;;;;;;;14.90;6.65;;;21.70;56.50;;;20.20;53.42;100987.84;5069343;28;20489;-85
2021/07/20 15:06:17;;;;;;;13.65;6.70;;;21.80;56.80;;;20.21;53.95;100997.84;5069087;28;20036;-85
2021/07/20 15:08:47;;;;;;;10.45;5.88;;;21.80;57.40;;;20.19;53.21;100989.78;5069553;28;20599;-86
2021/07/20 15:11:46;;;;;;;13.45;5.97;;;21.80;56.60;;;20.23;53.33;101001.22;5069723;28;20117;-85
2021/07/20 15:14:26;;;;;;;13.85;6.10;;;21.80;57.00;;;20.23;53.08;100993.75;5053947;28;20458;-85
2021/07/20 15:16:59;;;;;;;10.70;5.85;;;21.80;56.20;;;20.24;54.38;100995.44;5069064;28;20048;-85
2021/07/20 15:19:36;;;;;;;9.98;5.82;;;21.80;57.40;;;20.21;53.01;100995.91;5068438;28;20448;-86
2021/07/20 15:22:07;;;;;;;10.45;6.07;;;21.70;56.80;;;20.21;53.30;100993.16;5069385;28;20048;-85
2021/07/20 15:24:41;;;;;;;13.13;6.25;;;21.70;56.60;;;20.23;53.43;100992.91;5069455;28;20105;-85
2021/07/20 15:28:00;;;;;;;15.55;6.15;;;21.70;56.80;;;20.23;53.15;100992.91;5069220;28;20094;-91
2021/07/20 15:30:29;;;;;;;10.10;5.85;;;21.70;56.40;;;20.23;53.37;100988.22;5093461;22;20694;-86
2021/07/20 15:32:59;;;;;;;11.52;6.20;;;21.80;57.50;;;20.22;52.60;100981.03;5061320;28;20041;-86
2021/07/20 15:35:27;;;;;;;12.93;5.72;;;21.70;55.70;;;20.23;51.72;100998.44;5030891;28;20139;-86
2021/07/20 15:37:56;;;;;;;10.63;5.82;;;21.70;54.90;;;20.22;52.44;100992.09;5048466;28;20049;-85
2021/07/20 15:40:25;;;;;;;12.65;5.68;;;21.70;55.80;;;20.20;53.08;100988.72;5049129;28;20424;-85
2021/07/20 15:42:53;;;;;;;11.32;6.13;;;21.70;56.30;;;20.21;52.66;100995.91;5048824;28;20036;-85
2021/07/20 15:45:27;;;;;;;9.50;5.30;;;21.60;55.90;;;20.20;52.60;100987.84;5031124;28;20107;-86
2021/07/20 15:47:59;;;;;;;12.77;5.95;;;21.60;56.40;;;20.19;52.86;100992.53;5030861;28;20056;-85
2021/07/20 15:50:32;;;;;;;14.20;6.03;;;21.60;56.50;;;20.23;52.81;100987.38;5048894;28;20041;-85
2021/07/20 15:53:10;;;;;;;14.90;6.25;;;21.60;56.70;;;20.22;53.17;100986.56;5048924;28;20120;-85
2021/07/20 15:55:39;;;;;;;10.55;5.47;;;21.60;56.60;;;20.23;53.51;100992.91;5045048;28;20056;-79
2021/07/20 15:58:06;;;;;;;12.98;6.43;;;21.60;57.10;;;20.23;53.51;100991.00;5010759;28;20112;-86
2021/07/20 16:00:38;;;;;;;11.27;6.10;;;21.60;57.10;;;20.23;53.42;100991.00;5010374;28;20473;-86
2021/07/20 16:03:09;;;;;;;10.35;5.93;;;21.70;57.00;;;20.23;52.89;100988.22;5021052;28;20053;-86
2021/07/20 16:05:44;;;;;;;13.23;6.50;;;21.70;56.20;;;20.25;52.77;100994.34;5030507;28;20098;-85
2021/07/20 16:08:11;;;;;;;12.23;5.70;;;21.70;56.70;;;20.25;52.98;100999.06;5048073;28;20126;-85
2021/07/20 16:10:38;;;;;;;10.57;5.57;;;21.70;56.90;;;20.24;52.47;101000.97;5047750;28;20090;-87
2021/07/20 16:13:09;;;;;;;10.88;6.20;;;21.70;56.20;;;20.24;53.51;100992.69;5030190;28;20130;-87
2021/07/20 16:15:55;;;;;;;10.07;5.73;;;21.70;57.00;;;20.25;53.73;100986.06;5048755;28;20037;-89
2021/07/20 16:18:34;;;;;;;14.60;5.80;;;21.60;57.60;;;20.23;53.81;100985.47;5031973;28;20168;-89
2021/07/20 16:21:02;;;;;;;10.70;5.60;;;21.70;57.40;;;20.23;54.06;100987.38;5051795;28;20127;-86
2021/07/20 16:23:33;;;;;;;11.52;5.93;;;21.60;57.20;;;20.21;53.22;100990.38;5048001;28;20045;-88
2021/07/20 16:26:08;;;;;;;8.80;5.35;;;21.60;56.50;;;20.23;52.61;100993.75;5048310;28;20087;-88
2021/07/20 16:28:39;;;;;;;12.10;5.43;;;21.60;56.80;;;20.24;53.29;100989.91;5030442;28;20053;-88
2021/07/20 16:31:09;;;;;;;9.33;5.47;;;21.60;57.10;;;20.25;52.54;100991.59;5048405;28;20092;-88